Harrisville, MI

7:15 AM EDT on July 06, 2015 (GMT -0400)
KMIOSCOD3 | | Change Station
CLOSE
Current Station
Personal Weather Station
Location: On the Beach , North of Oscoda, MI
Elevation: 582 ft
Nearby Weather Stations

Elev 582 ft 44.51 °N, 83.32 °W | Updated 3 seconds ago

Clear
Clear
61.8 °F
Feels Like 61.8 °F
N
0.0
Wind Variable Wind from South
Gusts 0.0 mph

Today
High -- | Low -- °F
--% Chance of Precip.
Yesterday
High -- | Low -- °F
Precip. -- in
5:54 AM 9:21 PM
Waning Gibbous, 76% visible
Pressure 30.03 in
Visibility 7.0 miles
Clouds Clear
Dew Point 60 °F
Humidity 94%
Rainfall 0.00 in
Snow Depth Not available.
UV 0 out of 12
Pollen 4.10 out of 12
Air Quality Not available.
Flu Activity Not available.
METAR KOSC 061053Z AUTO 00000KT 7SM CLR 17/15 A3003 RMK AO2 T01710154

More Conditions Fewer Conditions

Pressure 30.03 in
Visibility 7.0 miles
Clouds Clear
Dew Point 60 °F
Humidity 94%
Rainfall 0.00 in
Snow Depth Not available.
UV 0 out of 12
Pollen 4.10 out of 12
Air Quality Not available.
Flu Activity Not available.
METAR KOSC 061053Z AUTO 00000KT 7SM CLR 17/15 A3003 RMK AO2 T01710154

More Conditions Fewer Conditions

Nowcast | as of 7:00 am EDT on July 6, 2015

At 8 am...mostly clear. Temperature 68. Southwest winds 7 mph. At 10 am...mostly clear. Temperature 76. South winds 9 mph. At 12 PM...mostly clear. Temperature 83. South winds 11 mph. At 2 PM...mostly clear. Temperature 84. South winds 15 mph.

×

10-Day Weather Forecast

×

Almanac

Astronomy

Jul. 06, 2015 Rise Set
Actual Time
Civil Twilight
Nautical Twilight
Astronomical Twilight
Moon
Length of Visible Light
Length of Day
Tomorrow will be .
, % of the Moon is Illuminated

Today's Extremes

State Highs State Lows

Community

WunderPhotos

Upload Photos

1,835,534 photos uploaded!

WunderBlogs® & News

Nearby

Air Quality

  Air Quality AQ Index Pollutant
Not available.

Snow Depth

Station Depth Elevation

Earthquake Activity

City Distance Mag. Time & Date
Minimum magnitude displayed is 2.5.

Coastal Water Temperatures

Place Temperature

Stations

Nearby Weather Stations

Station Location Temp. Windchill Dew Point Humidity Wind Precip. Elev Updated Type